createdAt,value
2018-12-27T00:01:11.394Z,20.72
2018-12-27T00:03:52.135Z,19.07
2018-12-27T00:06:32.943Z,18.65
2018-12-27T00:09:13.739Z,23.07
2018-12-27T00:11:54.462Z,20.72
2018-12-27T00:14:35.438Z,24.40
2018-12-27T00:17:15.853Z,24.18
2018-12-27T00:19:56.394Z,22.22
2018-12-27T00:22:37.363Z,22.85
2018-12-27T00:25:18.093Z,23.90
2018-12-27T00:27:59.031Z,23.87
2018-12-27T00:30:40.042Z,26.42
2018-12-27T00:33:20.809Z,24.12
2018-12-27T00:36:01.547Z,26.42
2018-12-27T00:38:42.591Z,22.58
2018-12-27T00:41:23.894Z,26.80
2018-12-27T00:44:04.489Z,27.07
2018-12-27T00:46:45.591Z,24.37
2018-12-27T00:49:26.130Z,17.23
2018-12-27T00:52:07.197Z,23.90
2018-12-27T00:54:47.987Z,19.87
2018-12-27T00:57:29.038Z,23.38
2018-12-27T01:00:09.975Z,21.95
2018-12-27T01:02:50.466Z,19.27
2018-12-27T01:05:31.331Z,21.20
2018-12-27T01:08:12.346Z,20.75
2018-12-27T01:10:53.171Z,20.77
2018-12-27T01:13:31.971Z,17.73
2018-12-27T01:16:19.810Z,21.52
2018-12-27T01:19:07.915Z,20.02
2018-12-27T01:21:55.762Z,20.08
2018-12-27T01:24:43.982Z,18.92
2018-12-27T01:27:31.830Z,19.98
2018-12-27T01:30:19.698Z,19.67
2018-12-27T01:33:07.557Z,20.82
2018-12-27T01:35:55.711Z,26.80
2018-12-27T01:38:43.601Z,20.48
2018-12-27T01:41:31.790Z,23.95
2018-12-27T01:44:12.534Z,22.55
2018-12-27T01:46:53.585Z,19.57
2018-12-27T01:49:34.617Z,20.17
2018-12-27T01:52:15.145Z,19.12
2018-12-27T01:54:56.002Z,20.68
2018-12-27T01:57:36.878Z,20.90
2018-12-27T02:00:18.157Z,25.15
2018-12-27T02:02:58.753Z,22.37
2018-12-27T02:05:39.305Z,28.90
2018-12-27T02:08:20.388Z,22.15
2018-12-27T02:11:01.870Z,19.00
2018-12-27T02:13:42.958Z,23.50
2018-12-27T02:16:23.222Z,24.10
2018-12-27T02:19:04.054Z,19.55
2018-12-27T02:21:45.150Z,18.40
2018-12-27T02:24:26.299Z,19.80
2018-12-27T02:27:06.626Z,18.42
2018-12-27T02:29:47.614Z,16.75
2018-12-27T02:32:28.346Z,20.75
2018-12-27T02:35:08.877Z,20.95
2018-12-27T02:37:49.765Z,21.00
2018-12-27T02:40:30.822Z,18.65
2018-12-27T02:43:11.523Z,14.33
2018-12-27T02:45:52.611Z,19.77
2018-12-27T02:48:33.166Z,17.87
2018-12-27T02:51:13.996Z,18.48
2018-12-27T02:53:54.537Z,15.50
2018-12-27T02:56:34.809Z,18.45
2018-12-27T02:59:16.342Z,18.65
2018-12-27T03:01:56.642Z,18.52
2018-12-27T03:04:37.809Z,14.35
2018-12-27T03:07:18.236Z,15.83
2018-12-27T03:09:59.014Z,18.85
2018-12-27T03:12:39.986Z,18.90
2018-12-27T03:15:20.692Z,15.93
2018-12-27T03:18:01.874Z,17.00
2018-12-27T03:20:42.924Z,18.48
2018-12-27T03:23:23.680Z,17.70
2018-12-27T03:26:04.674Z,17.48
2018-12-27T03:28:46.114Z,16.50
2018-12-27T03:31:26.887Z,17.07
2018-12-27T03:34:07.775Z,13.10
2018-12-27T03:36:48.446Z,17.30
2018-12-27T03:39:29.398Z,15.85
2018-12-27T03:42:10.059Z,22.22
2018-12-27T03:44:50.912Z,15.53
2018-12-27T03:47:31.579Z,19.40
2018-12-27T03:50:12.571Z,15.95
2018-12-27T03:52:53.498Z,16.27
2018-12-27T03:55:34.427Z,17.95
2018-12-27T03:58:15.730Z,23.35
2018-12-27T04:00:56.621Z,15.72
2018-12-27T04:03:37.323Z,14.70
2018-12-27T04:06:18.426Z,18.80
2018-12-27T04:08:58.989Z,15.83
2018-12-27T04:11:40.237Z,14.05
2018-12-27T04:14:20.523Z,17.10
2018-12-27T04:17:01.196Z,18.80
2018-12-27T04:19:41.861Z,15.65
2018-12-27T04:22:22.432Z,14.28
2018-12-27T04:25:03.884Z,16.10
2018-12-27T04:27:44.598Z,15.85
2018-12-27T04:30:25.090Z,17.17
2018-12-27T04:33:05.986Z,13.65
2018-12-27T04:35:47.079Z,16.73
2018-12-27T04:38:28.043Z,18.27
2018-12-27T04:41:08.960Z,16.57
2018-12-27T04:43:49.410Z,16.40
2018-12-27T04:46:30.318Z,15.30
2018-12-27T04:49:11.664Z,17.52
2018-12-27T04:51:52.901Z,18.23
2018-12-27T04:54:33.485Z,15.60
2018-12-27T04:57:14.199Z,18.32
2018-12-27T04:59:55.241Z,15.45
2018-12-27T05:02:36.684Z,16.62
2018-12-27T05:05:17.842Z,16.40
2018-12-27T05:08:00.434Z,16.07
2018-12-27T05:10:41.275Z,15.72
2018-12-27T05:13:21.974Z,16.75
2018-12-27T05:16:02.829Z,17.37
2018-12-27T05:18:43.427Z,16.23
2018-12-27T05:21:24.422Z,16.25
2018-12-27T05:24:05.249Z,18.65
2018-12-27T05:26:46.456Z,17.87
2018-12-27T05:29:27.021Z,13.85
2018-12-27T05:32:08.053Z,15.65
2018-12-27T05:34:48.961Z,15.72
2018-12-27T05:37:29.998Z,16.32
2018-12-27T05:40:11.036Z,20.08
2018-12-27T05:42:51.525Z,18.87
2018-12-27T05:45:32.017Z,18.15
2018-12-27T05:48:13.253Z,14.38
2018-12-27T05:50:52.317Z,17.45
2018-12-27T05:53:40.422Z,17.02
2018-12-27T05:56:20.802Z,18.85
2018-12-27T05:59:01.398Z,15.88
2018-12-27T06:01:42.249Z,15.95
2018-12-27T06:04:22.839Z,17.17
2018-12-27T06:07:03.526Z,17.05
2018-12-27T06:09:44.002Z,15.72
2018-12-27T06:12:24.606Z,15.48
2018-12-27T06:15:05.634Z,18.85
2018-12-27T06:17:46.581Z,14.85
2018-12-27T06:20:27.301Z,17.25
2018-12-27T06:23:08.173Z,15.15
2018-12-27T06:25:49.173Z,19.57
2018-12-27T06:28:30.052Z,14.65
2018-12-27T06:31:10.610Z,16.62
2018-12-27T06:33:51.418Z,20.75
2018-12-27T06:36:32.279Z,18.32
2018-12-27T06:39:13.266Z,17.92
2018-12-27T06:41:54.214Z,17.87
2018-12-27T06:44:35.230Z,18.60
2018-12-27T06:47:16.018Z,16.65
2018-12-27T06:49:57.154Z,15.98
2018-12-27T06:52:37.687Z,20.57
2018-12-27T06:55:18.898Z,17.32
2018-12-27T06:57:59.366Z,14.63
2018-12-27T07:00:40.682Z,16.42
2018-12-27T07:03:21.502Z,16.35
2018-12-27T07:06:01.866Z,17.48
2018-12-27T07:08:42.673Z,20.40
2018-12-27T07:11:23.695Z,18.60
2018-12-27T07:14:04.399Z,17.77
2018-12-27T07:16:45.294Z,15.53
2018-12-27T07:19:26.224Z,17.98
2018-12-27T07:22:06.858Z,15.08
2018-12-27T07:24:47.318Z,17.27
2018-12-27T07:27:28.433Z,17.12
2018-12-27T07:30:08.798Z,19.02
2018-12-27T07:32:49.434Z,18.17
2018-12-27T07:35:30.277Z,19.20
2018-12-27T07:38:10.993Z,17.80
2018-12-27T07:40:51.665Z,19.42
2018-12-27T07:43:32.450Z,19.23
2018-12-27T07:46:13.150Z,18.02
2018-12-27T07:48:53.990Z,20.45
2018-12-27T07:51:34.694Z,16.48
2018-12-27T07:54:15.651Z,19.65
2018-12-27T07:56:56.182Z,19.90
2018-12-27T07:59:37.262Z,14.50
2018-12-27T08:02:17.898Z,21.42
2018-12-27T08:05:03.972Z,21.77
2018-12-27T08:07:40.694Z,18.27
2018-12-27T08:10:21.474Z,17.57
2018-12-27T08:13:02.658Z,18.20
2018-12-27T08:15:46.406Z,18.40
2018-12-27T08:18:26.874Z,19.70
2018-12-27T08:21:08.004Z,16.25
2018-12-27T08:23:48.891Z,18.02
2018-12-27T08:26:29.678Z,16.17
2018-12-27T08:29:10.707Z,16.90
2018-12-27T08:31:51.677Z,18.62
2018-12-27T08:34:32.540Z,20.10
2018-12-27T08:37:13.178Z,19.52
2018-12-27T08:39:54.428Z,19.27
2018-12-27T08:42:35.802Z,16.77
2018-12-27T08:45:16.210Z,19.42
2018-12-27T08:47:56.987Z,19.45
2018-12-27T08:50:37.685Z,20.50
2018-12-27T08:53:18.238Z,19.45
2018-12-27T08:55:59.445Z,19.80
2018-12-27T08:58:39.944Z,19.55
2018-12-27T09:01:20.931Z,20.62
2018-12-27T09:04:01.930Z,17.65
2018-12-27T09:06:42.918Z,18.32
2018-12-27T09:09:23.770Z,17.42
2018-12-27T09:12:05.014Z,21.93
2018-12-27T09:14:45.586Z,22.85
2018-12-27T09:17:26.126Z,14.43
2018-12-27T09:20:07.262Z,15.45
2018-12-27T09:22:48.062Z,24.65
2018-12-27T09:25:29.195Z,18.70
2018-12-27T09:28:09.509Z,19.90
2018-12-27T09:30:50.102Z,17.98
2018-12-27T09:33:30.899Z,19.62
2018-12-27T09:36:11.889Z,16.37
2018-12-27T09:38:52.886Z,17.82
2018-12-27T09:41:33.896Z,17.30
2018-12-27T09:44:14.494Z,16.57
2018-12-27T09:46:55.310Z,17.42
2018-12-27T09:49:36.618Z,17.23
2018-12-27T09:52:17.883Z,17.27
2018-12-27T09:54:58.743Z,16.95
2018-12-27T09:57:39.562Z,18.32
2018-12-27T10:00:20.234Z,16.15
2018-12-27T10:03:01.215Z,15.80
2018-12-27T10:05:41.827Z,15.63
2018-12-27T10:08:22.585Z,17.23
2018-12-27T10:11:03.286Z,17.35
2018-12-27T10:13:44.373Z,21.65
2018-12-27T10:16:28.346Z,16.87
2018-12-27T10:19:09.425Z,18.52
2018-12-27T10:21:50.183Z,15.03
2018-12-27T10:24:31.194Z,18.32
2018-12-27T10:27:11.918Z,17.10
2018-12-27T10:29:50.742Z,13.72
2018-12-27T10:32:38.509Z,14.98
2018-12-27T10:35:26.298Z,13.60
2018-12-27T10:38:14.079Z,16.30
2018-12-27T10:41:01.860Z,13.45
2018-12-27T10:43:49.633Z,15.40
2018-12-27T10:46:37.416Z,17.30
2018-12-27T10:49:25.177Z,18.05
2018-12-27T10:52:12.950Z,20.82
2018-12-27T10:55:01.057Z,22.77
2018-12-27T10:57:48.829Z,18.20
2018-12-27T11:00:29.890Z,15.68
2018-12-27T11:03:11.012Z,18.52
2018-12-27T11:05:52.070Z,15.48
2018-12-27T11:08:32.990Z,18.90
2018-12-27T11:11:14.490Z,18.23
2018-12-27T11:13:55.707Z,19.32
2018-12-27T11:16:36.162Z,20.95
2018-12-27T11:19:17.487Z,17.80
2018-12-27T11:21:58.362Z,20.65
2018-12-27T11:24:39.354Z,18.02
2018-12-27T11:27:20.687Z,18.60
2018-12-27T11:30:01.450Z,16.55
2018-12-27T11:32:42.394Z,18.30
2018-12-27T11:35:23.074Z,19.40
2018-12-27T11:38:03.937Z,18.17
2018-12-27T11:40:44.466Z,20.60
2018-12-27T11:43:24.950Z,18.25
2018-12-27T11:46:05.557Z,16.62
2018-12-27T11:48:46.282Z,21.30
2018-12-27T11:51:27.506Z,18.10
2018-12-27T11:54:08.142Z,17.92
2018-12-27T11:56:48.865Z,15.38
2018-12-27T11:59:30.085Z,19.05
2018-12-27T12:02:10.919Z,18.20
2018-12-27T12:04:51.392Z,11.45
2018-12-27T12:07:32.524Z,13.28
2018-12-27T12:10:13.326Z,11.75
2018-12-27T12:12:53.765Z,16.40
2018-12-27T12:15:34.740Z,15.03
2018-12-27T12:18:15.382Z,16.35
2018-12-27T12:20:56.474Z,12.53
2018-12-27T12:23:37.325Z,14.58
2018-12-27T12:26:18.259Z,13.40
2018-12-27T12:28:59.450Z,16.02
2018-12-27T12:31:28.145Z,12.10
2018-12-27T12:34:15.927Z,14.47
2018-12-27T12:37:03.869Z,14.83
2018-12-27T12:39:51.658Z,11.30
2018-12-27T12:42:39.429Z,14.10
2018-12-27T12:45:27.210Z,18.45
2018-12-27T12:48:14.990Z,13.10
2018-12-27T12:51:03.022Z,13.40
2018-12-27T12:53:51.139Z,13.55
2018-12-27T12:56:38.910Z,12.95
2018-12-27T12:59:27.010Z,9.90
2018-12-27T13:02:07.434Z,12.45
2018-12-27T13:04:48.334Z,12.40
2018-12-27T13:07:29.456Z,12.37
2018-12-27T13:10:10.078Z,14.25
2018-12-27T13:12:50.958Z,12.10
2018-12-27T13:15:31.930Z,13.68
2018-12-27T13:18:12.783Z,11.53
2018-12-27T13:20:53.770Z,14.90
2018-12-27T13:23:34.718Z,13.45
2018-12-27T13:26:15.984Z,14.70
2018-12-27T13:28:57.006Z,12.55
2018-12-27T13:31:38.207Z,12.98
2018-12-27T13:34:19.082Z,13.00
2018-12-27T13:36:59.494Z,11.78
2018-12-27T13:39:40.446Z,14.55
2018-12-27T13:42:21.026Z,14.30
2018-12-27T13:45:02.342Z,13.80
2018-12-27T13:47:43.404Z,12.90
2018-12-27T13:50:24.335Z,14.07
2018-12-27T13:53:05.274Z,15.00
2018-12-27T13:55:46.116Z,13.13
2018-12-27T13:58:26.955Z,14.93
2018-12-27T14:01:07.614Z,14.78
2018-12-27T14:03:48.521Z,11.25
2018-12-27T14:06:32.855Z,10.65
2018-12-27T14:09:11.766Z,14.10
2018-12-27T14:11:52.837Z,12.05
2018-12-27T14:14:34.250Z,16.05
2018-12-27T14:17:15.217Z,14.58
2018-12-27T14:19:56.010Z,14.95
2018-12-27T14:22:36.691Z,12.13
2018-12-27T14:25:17.870Z,12.90
2018-12-27T14:27:58.738Z,15.93
2018-12-27T14:30:39.970Z,12.43
2018-12-27T14:33:20.502Z,12.25
2018-12-27T14:36:00.925Z,14.60
2018-12-27T14:38:41.091Z,17.50
2018-12-27T14:41:22.308Z,12.15
2018-12-27T14:44:03.169Z,14.95
2018-12-27T14:46:43.714Z,12.75
2018-12-27T14:49:24.277Z,16.60
2018-12-27T14:52:04.626Z,12.90
2018-12-27T14:54:45.843Z,15.10
2018-12-27T14:57:26.374Z,15.93
2018-12-27T15:00:06.970Z,11.43
2018-12-27T15:02:48.062Z,13.20
2018-12-27T15:05:28.618Z,13.38
2018-12-27T15:08:08.993Z,17.12
2018-12-27T15:10:49.950Z,12.40
2018-12-27T15:13:30.818Z,12.45
2018-12-27T15:16:11.256Z,13.18
2018-12-27T15:18:52.375Z,15.43
2018-12-27T15:21:32.906Z,12.63
2018-12-27T15:24:13.654Z,16.12
2018-12-27T15:26:54.210Z,14.18
2018-12-27T15:29:35.080Z,12.88
2018-12-27T15:32:16.026Z,11.88
2018-12-27T15:34:56.436Z,11.75
2018-12-27T15:37:37.334Z,11.75
2018-12-27T15:40:18.382Z,13.48
2018-12-27T15:42:59.172Z,14.38
2018-12-27T15:45:39.802Z,18.62
2018-12-27T15:48:20.221Z,16.62
2018-12-27T15:51:01.707Z,11.70
2018-12-27T15:53:40.413Z,12.60
2018-12-27T15:56:28.217Z,14.68
2018-12-27T15:59:16.234Z,13.58
2018-12-27T16:04:57.838Z,18.12
2018-12-27T16:07:45.619Z,14.30
2018-12-27T16:10:35.258Z,12.88
2018-12-27T16:13:23.154Z,14.03
2018-12-27T16:16:11.186Z,12.93
2018-12-27T16:18:59.329Z,14.75
2018-12-27T16:21:47.112Z,13.62
2018-12-27T16:24:34.875Z,12.30
2018-12-27T16:27:22.942Z,14.13
2018-12-27T16:30:11.086Z,14.73
2018-12-27T16:32:58.870Z,16.67
2018-12-27T16:35:46.654Z,12.80
2018-12-27T16:41:41.289Z,12.50
2018-12-27T16:44:21.598Z,9.55
2018-12-27T16:47:02.461Z,12.13
2018-12-27T16:49:43.166Z,13.40
2018-12-27T16:52:24.178Z,18.02
2018-12-27T16:55:04.824Z,15.40
2018-12-27T16:57:45.554Z,19.55
2018-12-27T17:00:26.331Z,14.55
2018-12-27T17:03:07.558Z,17.82
2018-12-27T17:05:48.446Z,15.48
2018-12-27T17:08:29.451Z,16.67
2018-12-27T17:11:09.866Z,19.92
2018-12-27T17:13:50.801Z,16.87
2018-12-27T17:16:31.334Z,13.18
2018-12-27T17:19:12.151Z,19.45
2018-12-27T17:21:52.718Z,13.08
2018-12-27T17:24:33.742Z,17.07
2018-12-27T17:27:14.622Z,16.20
2018-12-27T17:29:55.694Z,14.65
2018-12-27T17:32:37.046Z,14.85
2018-12-27T17:35:18.327Z,12.23
2018-12-27T17:37:59.043Z,16.48
2018-12-27T17:40:39.906Z,13.20
2018-12-27T17:43:20.811Z,13.30
2018-12-27T17:46:01.783Z,13.18
2018-12-27T17:48:42.845Z,11.63
2018-12-27T17:51:23.061Z,10.93
2018-12-27T17:54:04.016Z,13.35
2018-12-27T17:56:45.114Z,12.28
2018-12-27T17:59:25.517Z,14.23
2018-12-27T18:02:06.518Z,19.23
2018-12-27T18:04:47.236Z,12.07
2018-12-27T18:07:30.784Z,14.58
2018-12-27T18:10:10.234Z,12.75
2018-12-27T18:12:51.170Z,15.53
2018-12-27T18:15:31.874Z,17.15
2018-12-27T18:18:12.515Z,15.05
2018-12-27T18:20:53.178Z,10.60
2018-12-27T18:23:33.594Z,13.25
2018-12-27T18:26:14.135Z,14.85
2018-12-27T18:28:54.585Z,14.00
2018-12-27T18:31:35.133Z,13.03
2018-12-27T18:34:15.894Z,13.62
2018-12-27T18:36:56.630Z,15.08
2018-12-27T18:39:37.942Z,14.33
2018-12-27T18:42:18.515Z,11.97
2018-12-27T18:44:59.347Z,11.33
2018-12-27T18:47:39.962Z,14.40
2018-12-27T18:50:20.776Z,11.68
2018-12-27T18:53:01.772Z,15.10
2018-12-27T18:55:42.734Z,11.95
2018-12-27T18:58:23.298Z,12.40
2018-12-27T19:01:04.067Z,12.07
2018-12-27T19:03:44.629Z,12.47
2018-12-27T19:06:25.542Z,14.78
2018-12-27T19:09:06.505Z,11.05
2018-12-27T19:11:47.590Z,11.70
2018-12-27T19:14:28.077Z,11.83
2018-12-27T19:17:08.689Z,15.45
2018-12-27T19:19:49.821Z,10.00
2018-12-27T19:22:30.670Z,11.28
2018-12-27T19:25:11.296Z,11.55
2018-12-27T19:27:52.258Z,11.68
2018-12-27T19:30:32.833Z,15.18
2018-12-27T19:33:13.698Z,12.90
2018-12-27T19:35:54.478Z,12.85
2018-12-27T19:38:35.626Z,14.23
2018-12-27T19:41:15.971Z,11.10
2018-12-27T19:43:57.019Z,12.15
2018-12-27T19:46:37.517Z,11.22
2018-12-27T19:49:18.362Z,15.43
2018-12-27T19:51:59.982Z,13.38
2018-12-27T19:54:41.046Z,14.85
2018-12-27T19:57:21.521Z,11.78
2018-12-27T20:00:02.148Z,12.23
2018-12-27T20:02:43.015Z,13.35
2018-12-27T20:05:23.490Z,10.45
2018-12-27T20:08:04.332Z,12.98
2018-12-27T20:10:44.966Z,14.83
2018-12-27T20:13:25.533Z,12.98
2018-12-27T20:16:06.498Z,11.65
2018-12-27T20:18:47.322Z,15.20
2018-12-27T20:21:27.786Z,14.33
2018-12-27T20:24:07.975Z,15.23
2018-12-27T20:26:49.035Z,14.55
2018-12-27T20:29:29.539Z,16.95
2018-12-27T20:32:10.293Z,15.05
2018-12-27T20:34:51.427Z,13.98
2018-12-27T20:37:36.098Z,14.60
2018-12-27T20:40:16.650Z,12.30
2018-12-27T20:42:57.499Z,11.90
2018-12-27T20:45:38.340Z,14.33
2018-12-27T20:48:19.541Z,12.25
2018-12-27T20:51:00.051Z,11.20
2018-12-27T20:53:40.785Z,11.30
2018-12-27T20:56:21.939Z,11.38
2018-12-27T20:59:02.186Z,12.37
2018-12-27T21:01:43.230Z,14.38
2018-12-27T21:04:23.848Z,12.45
2018-12-27T21:07:04.526Z,11.93
2018-12-27T21:09:44.888Z,14.93
2018-12-27T21:12:25.795Z,11.30
2018-12-27T21:15:06.282Z,13.25
2018-12-27T21:17:47.666Z,10.63
2018-12-27T21:20:28.797Z,9.95
2018-12-27T21:23:09.530Z,12.35
2018-12-27T21:25:50.474Z,12.13
2018-12-27T21:28:31.418Z,13.22
2018-12-27T21:31:12.305Z,14.05
2018-12-27T21:33:52.731Z,11.95
2018-12-27T21:36:33.925Z,9.95
2018-12-27T21:39:15.006Z,10.35
2018-12-27T21:41:55.882Z,15.05
2018-12-27T21:44:37.246Z,12.05
2018-12-27T21:47:17.705Z,13.08
2018-12-27T21:49:58.142Z,15.08
2018-12-27T21:52:39.449Z,13.38
2018-12-27T21:55:20.246Z,12.15
2018-12-27T21:58:01.062Z,11.85
2018-12-27T22:00:42.011Z,14.35
2018-12-27T22:03:22.758Z,13.85
2018-12-27T22:06:03.563Z,14.07
2018-12-27T22:08:44.653Z,17.12
2018-12-27T22:11:26.661Z,16.73
2018-12-27T22:14:07.821Z,10.40
2018-12-27T22:16:48.593Z,14.70
2018-12-27T22:19:29.182Z,13.38
2018-12-27T22:22:10.045Z,12.15
2018-12-27T22:24:51.314Z,12.50
2018-12-27T22:27:32.121Z,12.25
2018-12-27T22:30:13.042Z,12.95
2018-12-27T22:32:54.002Z,13.68
2018-12-27T22:35:34.811Z,11.65
2018-12-27T22:38:15.376Z,15.85
2018-12-27T22:40:56.350Z,13.80
2018-12-27T22:43:37.291Z,12.45
2018-12-27T22:46:17.771Z,16.05
2018-12-27T22:48:58.656Z,12.95
2018-12-27T22:51:39.539Z,16.48
2018-12-27T22:54:20.743Z,16.48
2018-12-27T22:57:01.187Z,14.63
2018-12-27T22:59:41.849Z,14.45
2018-12-27T23:02:22.889Z,11.50
2018-12-27T23:05:03.410Z,14.28
2018-12-27T23:07:43.752Z,16.35
2018-12-27T23:10:25.081Z,12.28
2018-12-27T23:13:05.715Z,12.98
2018-12-27T23:15:46.943Z,10.95
2018-12-27T23:18:28.159Z,14.98
2018-12-27T23:21:08.755Z,11.68
2018-12-27T23:23:47.470Z,13.58
2018-12-27T23:26:35.235Z,13.43
2018-12-27T23:29:23.014Z,15.38
2018-12-27T23:32:10.831Z,13.15
2018-12-27T23:34:58.664Z,18.82
2018-12-27T23:37:46.766Z,17.65
2018-12-27T23:40:34.806Z,13.35
2018-12-27T23:43:15.526Z,11.25
2018-12-27T23:45:56.312Z,12.35
2018-12-27T23:48:37.115Z,21.05
2018-12-27T23:51:18.286Z,13.03
2018-12-27T23:53:59.238Z,13.00
2018-12-27T23:56:40.079Z,15.98
2018-12-27T23:59:21.013Z,15.93
